createdAt,value
2019-01-16T00:04:15.500Z,80.81
2019-01-16T00:07:23.321Z,80.66
2019-01-16T00:13:30.206Z,82.17
2019-01-16T00:16:30.581Z,81.08
2019-01-16T00:22:47.821Z,82.09
2019-01-16T00:25:55.652Z,82.21
2019-01-16T00:29:03.489Z,81.47
2019-01-16T00:35:00.008Z,81.96
2019-01-16T00:38:07.818Z,83.51
2019-01-16T00:41:15.640Z,82.52
2019-01-16T00:44:23.542Z,83.34
2019-01-16T00:47:31.361Z,83.14
2019-01-16T00:50:39.436Z,83.41
2019-01-16T00:59:42.131Z,83.98
2019-01-16T01:02:49.971Z,84.46
2019-01-16T01:08:53.544Z,83.63
2019-01-16T01:12:01.428Z,84.16
2019-01-16T01:15:02.433Z,84.52
2019-01-16T01:18:10.263Z,83.83
2019-01-16T01:21:18.327Z,83.92
2019-01-16T01:24:26.167Z,84.36
2019-01-16T01:27:33.981Z,83.53
2019-01-16T01:30:41.849Z,83.67
2019-01-16T01:33:49.674Z,82.76
2019-01-16T01:36:57.511Z,82.07
2019-01-16T01:40:05.347Z,82.03
2019-01-16T01:46:22.556Z,82.41
2019-01-16T01:49:30.443Z,83.12
2019-01-16T01:52:38.516Z,82.85
2019-01-16T02:01:51.415Z,82.42
2019-01-16T02:04:59.487Z,81.27
2019-01-16T02:14:02.268Z,82.81
2019-01-16T02:16:45.969Z,82.66
2019-01-16T02:19:53.786Z,83.42
2019-01-16T02:23:01.614Z,82.87
2019-01-16T02:26:09.439Z,83.45
2019-01-16T02:29:17.251Z,82.76
2019-01-16T02:32:25.085Z,83.26
2019-01-16T02:35:08.016Z,82.59
2019-01-16T02:38:15.847Z,82.71
2019-01-16T02:41:23.925Z,82.32
2019-01-16T02:44:31.765Z,82.59
2019-01-16T02:47:39.585Z,83.50
2019-01-16T02:50:47.432Z,84.12
2019-01-16T02:53:55.247Z,83.90
2019-01-16T02:57:03.084Z,83.71
2019-01-16T03:03:20.295Z,84.82
2019-01-16T03:06:28.366Z,84.35
2019-01-16T03:12:31.915Z,84.87
2019-01-16T03:15:11.470Z,84.10
2019-01-16T03:27:24.097Z,84.46
2019-01-16T03:30:32.002Z,84.09
2019-01-16T03:33:39.820Z,85.44
2019-01-16T03:36:47.648Z,85.48
2019-01-16T03:39:55.461Z,85.09
2019-01-16T03:43:03.296Z,84.96
2019-01-16T03:46:11.111Z,84.51
2019-01-16T03:55:14.114Z,84.51
2019-01-16T03:58:21.996Z,84.53
2019-01-16T04:01:29.832Z,83.97
2019-01-16T04:07:33.529Z,84.42
2019-01-16T04:13:37.126Z,84.15
2019-01-16T04:16:37.404Z,84.49
2019-01-16T04:19:45.254Z,83.52
2019-01-16T04:31:43.274Z,84.12
2019-01-16T04:34:51.098Z,83.54
2019-01-16T04:40:58.200Z,83.15
2019-01-16T04:47:16.984Z,84.10
2019-01-16T04:50:45.822Z,84.11
2019-01-16T04:53:53.647Z,83.87
2019-01-16T04:57:01.467Z,83.87
2019-01-16T05:00:09.300Z,83.45
2019-01-16T05:03:17.109Z,83.88
2019-01-16T05:09:45.229Z,84.88
2019-01-16T05:12:53.089Z,83.90
2019-01-16T05:16:00.931Z,83.14
2019-01-16T05:19:01.502Z,82.63
2019-01-16T05:22:09.346Z,82.28
2019-01-16T05:28:26.559Z,81.96
2019-01-16T05:31:35.668Z,81.61
2019-01-16T05:34:43.932Z,81.62
2019-01-16T05:41:01.169Z,81.58
2019-01-16T05:47:18.362Z,81.98
2019-01-16T05:53:56.471Z,82.32
2019-01-16T05:57:04.291Z,83.14
2019-01-16T06:00:12.124Z,83.50
2019-01-16T06:03:19.939Z,83.58
2019-01-16T06:09:44.116Z,83.79
2019-01-16T06:12:51.930Z,83.91
2019-01-16T06:18:48.786Z,84.00
2019-01-16T06:24:52.389Z,83.68
2019-01-16T06:28:00.205Z,83.16
2019-01-16T06:34:07.105Z,83.19
2019-01-16T06:36:50.128Z,83.20
2019-01-16T06:39:57.944Z,83.56
2019-01-16T06:43:05.771Z,83.66
2019-01-16T06:45:54.328Z,83.50
2019-01-16T06:49:02.162Z,83.19
2019-01-16T06:55:19.389Z,83.34
2019-01-16T06:58:27.269Z,83.31
2019-01-16T07:07:33.363Z,83.83
2019-01-16T07:10:41.194Z,83.85
2019-01-16T07:13:49.028Z,83.46
2019-01-16T07:16:57.140Z,84.63
2019-01-16T07:20:09.610Z,84.78
2019-01-16T07:23:14.516Z,84.63
2019-01-16T07:29:31.733Z,84.99
2019-01-16T07:32:39.549Z,84.36
2019-01-16T07:35:47.633Z,84.34
2019-01-16T07:42:03.542Z,84.46
2019-01-16T07:45:11.348Z,84.77
2019-01-16T07:48:19.181Z,84.83
2019-01-16T07:51:26.992Z,84.21
2019-01-16T07:54:15.484Z,85.34
2019-01-16T07:57:23.373Z,85.02
2019-01-16T08:00:52.125Z,84.05
2019-01-16T08:03:59.944Z,83.53
2019-01-16T08:10:03.533Z,83.28
2019-01-16T08:12:52.082Z,83.61
2019-01-16T08:21:34.359Z,82.05
2019-01-16T08:24:42.189Z,82.35
2019-01-16T08:27:50.019Z,81.87
2019-01-16T08:34:07.399Z,81.49
2019-01-16T08:37:15.244Z,82.57
2019-01-16T08:40:43.972Z,82.17
2019-01-16T08:46:41.850Z,81.89
2019-01-16T08:49:49.669Z,81.31
2019-01-16T08:52:57.507Z,81.17
2019-01-16T08:56:05.352Z,81.34
2019-01-16T09:02:22.701Z,81.08
2019-01-16T09:05:30.687Z,81.16
2019-01-16T09:11:37.868Z,80.20
2019-01-16T09:14:45.687Z,81.40
2019-01-16T09:17:53.523Z,80.57
2019-01-16T09:20:54.445Z,80.30
2019-01-16T09:27:01.357Z,80.86
2019-01-16T09:33:18.555Z,80.00
2019-01-16T09:36:26.385Z,79.31
2019-01-16T09:39:34.208Z,79.71
2019-01-16T09:42:42.044Z,79.54
2019-01-16T09:45:49.866Z,79.68
2019-01-16T09:48:57.705Z,79.46
2019-01-16T09:52:05.523Z,79.17
2019-01-16T09:55:13.355Z,79.71
2019-01-16T09:58:21.181Z,79.48
2019-01-16T10:01:29.012Z,79.81
2019-01-16T10:04:36.850Z,79.55
2019-01-16T10:07:44.662Z,79.15
2019-01-16T10:10:52.491Z,78.69
2019-01-16T10:14:00.329Z,78.39
2019-01-16T10:17:08.427Z,79.62
2019-01-16T10:20:16.247Z,79.19
2019-01-16T10:23:02.298Z,78.75
2019-01-16T10:26:10.118Z,78.53
2019-01-16T10:29:17.953Z,78.55
2019-01-16T10:35:35.319Z,78.32
2019-01-16T10:38:43.142Z,77.86
2019-01-16T10:41:50.969Z,77.77
2019-01-16T10:44:58.784Z,78.03
2019-01-16T10:48:06.617Z,78.10
2019-01-16T10:54:23.977Z,78.79
2019-01-16T10:57:31.785Z,79.42
2019-01-16T11:00:39.692Z,78.97
2019-01-16T11:03:47.508Z,78.17
2019-01-16T11:06:55.345Z,78.74
2019-01-16T11:16:11.774Z,77.98
2019-01-16T11:19:12.013Z,78.36
2019-01-16T11:22:19.841Z,78.01
2019-01-16T11:25:48.572Z,77.83
2019-01-16T11:28:56.397Z,78.45
2019-01-16T11:35:13.674Z,77.97
2019-01-16T11:38:02.235Z,77.95
2019-01-16T11:41:10.136Z,77.54
2019-01-16T11:44:18.198Z,76.92
2019-01-16T11:47:26.044Z,76.61
2019-01-16T11:50:33.923Z,76.56
2019-01-16T11:53:41.763Z,75.77
2019-01-16T11:59:45.254Z,75.09
2019-01-16T12:02:53.089Z,74.78
2019-01-16T12:06:00.987Z,75.41
2019-01-16T12:09:08.820Z,75.57
2019-01-16T12:18:42.718Z,77.12
2019-01-16T12:21:26.595Z,76.23
2019-01-16T12:24:34.629Z,76.24
2019-01-16T12:27:42.470Z,75.40
2019-01-16T12:33:59.680Z,77.20
2019-01-16T12:37:07.490Z,76.44
2019-01-16T12:40:15.328Z,76.29
2019-01-16T12:46:51.553Z,76.21
2019-01-16T12:56:07.795Z,75.28
2019-01-16T13:02:07.549Z,74.73
2019-01-16T13:05:15.468Z,74.14
2019-01-16T13:08:23.439Z,75.19
2019-01-16T13:20:14.974Z,74.81
2019-01-16T13:23:22.804Z,75.11
2019-01-16T13:29:40.176Z,75.29
2019-01-16T13:32:47.991Z,75.64
2019-01-16T13:35:55.844Z,75.16
2019-01-16T13:39:03.695Z,75.30
2019-01-16T13:41:49.575Z,76.01
2019-01-16T13:44:57.641Z,74.79
2019-01-16T13:51:04.681Z,75.16
2019-01-16T13:54:12.577Z,75.29
2019-01-16T13:57:20.408Z,75.43
2019-01-16T14:00:49.149Z,75.30
2019-01-16T14:06:52.692Z,74.92
2019-01-16T14:12:56.269Z,75.40
2019-01-16T14:19:00.016Z,74.86
2019-01-16T14:25:17.230Z,74.44
2019-01-16T14:28:25.212Z,74.71
2019-01-16T14:31:33.116Z,74.07
2019-01-16T14:34:41.097Z,74.29
2019-01-16T14:37:48.937Z,73.61
2019-01-16T14:44:04.432Z,73.89
2019-01-16T14:47:12.247Z,73.75
2019-01-16T14:56:12.002Z,73.95
2019-01-16T14:59:19.810Z,75.09
2019-01-16T15:08:39.116Z,75.37
2019-01-16T15:11:46.925Z,75.24
2019-01-16T15:14:54.771Z,75.46
2019-01-16T15:18:02.587Z,74.99
2019-01-16T15:21:10.427Z,75.48
2019-01-16T15:24:10.852Z,74.96
2019-01-16T15:27:18.691Z,75.04
2019-01-16T15:30:45.847Z,74.82
2019-01-16T15:33:53.676Z,74.76
2019-01-16T15:39:38.565Z,74.12
2019-01-16T15:42:46.385Z,74.48
2019-01-16T15:45:54.230Z,74.44
2019-01-16T15:52:13.169Z,74.27
2019-01-16T15:55:21.246Z,74.17
2019-01-16T16:01:28.360Z,74.53
2019-01-16T16:04:36.175Z,74.56
2019-01-16T16:13:50.036Z,74.35
2019-01-16T16:16:57.874Z,74.27
2019-01-16T16:20:05.693Z,74.60
2019-01-16T16:23:13.529Z,74.57
2019-01-16T16:29:30.748Z,75.33
2019-01-16T16:32:38.561Z,74.89
2019-01-16T16:35:46.400Z,75.08
2019-01-16T16:38:54.208Z,74.55
2019-01-16T16:41:55.244Z,74.35
2019-01-16T16:48:12.455Z,74.27
2019-01-16T16:51:20.268Z,74.17
2019-01-16T16:57:07.731Z,74.25
2019-01-16T17:00:15.565Z,74.39
2019-01-16T17:06:30.514Z,74.30
2019-01-16T17:12:47.751Z,74.85
2019-01-16T17:15:55.614Z,74.95
2019-01-16T17:21:38.329Z,75.11
2019-01-16T17:27:55.683Z,75.19
2019-01-16T17:31:03.588Z,75.47
2019-01-16T17:34:11.490Z,75.08
2019-01-16T17:37:19.338Z,75.11
2019-01-16T17:40:48.130Z,75.26
2019-01-16T17:43:55.974Z,75.54
2019-01-16T17:47:03.935Z,75.59
2019-01-16T17:53:21.267Z,75.61
2019-01-16T17:56:29.078Z,75.84
2019-01-16T17:59:37.229Z,75.62
2019-01-16T18:09:14.818Z,76.95
2019-01-16T18:21:17.260Z,77.20
2019-01-16T18:24:25.190Z,77.21
2019-01-16T18:27:33.114Z,77.18
2019-01-16T18:30:41.052Z,77.93
2019-01-16T18:33:49.014Z,78.00
2019-01-16T18:40:06.443Z,78.08
2019-01-16T18:43:14.478Z,78.77
2019-01-16T18:46:22.426Z,79.11
2019-01-16T18:49:30.434Z,79.67
2019-01-16T18:52:38.380Z,79.38
2019-01-16T18:55:46.271Z,79.44
2019-01-16T18:58:54.251Z,79.61
2019-01-16T19:02:02.283Z,79.62
2019-01-16T19:05:10.379Z,79.67
2019-01-16T19:08:18.516Z,80.28
2019-01-16T19:11:26.487Z,80.23
2019-01-16T19:14:34.623Z,80.88
2019-01-16T19:17:42.869Z,80.62
2019-01-16T19:20:51.162Z,80.86
2019-01-16T19:23:52.686Z,80.76
2019-01-16T19:30:32.033Z,81.35
2019-01-16T19:39:50.037Z,81.56
2019-01-16T19:48:53.248Z,81.38
2019-01-16T19:52:01.847Z,81.35
2019-01-16T19:58:19.678Z,81.71
2019-01-16T20:04:37.070Z,81.25
2019-01-16T20:10:54.858Z,81.14
2019-01-16T20:14:02.898Z,80.99
2019-01-16T20:20:07.487Z,81.44
2019-01-16T20:22:54.827Z,81.53
2019-01-16T20:26:03.487Z,81.28
2019-01-16T20:29:31.426Z,81.05
2019-01-16T20:39:03.881Z,82.21
2019-01-16T20:41:53.163Z,81.84
2019-01-16T20:45:01.282Z,81.58
2019-01-16T20:48:09.237Z,82.08
2019-01-16T20:51:17.094Z,82.21
2019-01-16T20:57:34.577Z,82.44
2019-01-16T21:00:23.251Z,82.62
2019-01-16T21:03:31.238Z,82.84
2019-01-16T21:06:39.095Z,83.01
2019-01-16T21:09:25.340Z,82.49
2019-01-16T21:12:33.547Z,82.59
2019-01-16T21:15:41.536Z,82.10
2019-01-16T21:18:49.424Z,82.19
2019-01-16T21:24:56.629Z,81.55
2019-01-16T21:28:04.495Z,81.06
2019-01-16T21:31:12.334Z,80.61
2019-01-16T21:37:37.136Z,79.80
2019-01-16T21:40:44.950Z,79.25
2019-01-16T21:43:52.783Z,79.30
2019-01-16T21:47:01.683Z,79.37
2019-01-16T21:50:09.531Z,79.83
2019-01-16T21:53:17.442Z,79.46
2019-01-16T21:56:05.997Z,80.12
2019-01-16T21:59:13.887Z,79.59
2019-01-16T22:02:21.726Z,79.89
2019-01-16T22:05:29.618Z,80.02
2019-01-16T22:11:36.351Z,80.20
2019-01-16T22:14:44.189Z,79.25
2019-01-16T22:17:52.073Z,78.72
2019-01-16T22:20:59.911Z,78.52
2019-01-16T22:24:07.723Z,78.66
2019-01-16T22:27:15.554Z,79.10
2019-01-16T22:30:44.287Z,78.61
2019-01-16T22:33:52.188Z,78.66
2019-01-16T22:37:00.006Z,78.29
2019-01-16T22:40:07.846Z,77.95
2019-01-16T22:43:15.675Z,77.55
2019-01-16T22:46:23.562Z,77.15
2019-01-16T22:49:31.461Z,77.29
2019-01-16T22:52:39.277Z,77.25
2019-01-16T22:55:47.122Z,77.20
2019-01-16T23:05:03.375Z,77.08
2019-01-16T23:08:11.195Z,77.31
2019-01-16T23:11:12.148Z,76.71
2019-01-16T23:14:19.981Z,76.69
2019-01-16T23:17:27.818Z,76.53
2019-01-16T23:23:49.786Z,76.18
2019-01-16T23:26:54.554Z,77.00
2019-01-16T23:32:58.241Z,76.32
2019-01-16T23:36:06.078Z,76.22
2019-01-16T23:39:13.898Z,75.86
2019-01-16T23:42:21.736Z,75.63
2019-01-16T23:45:29.731Z,75.70
2019-01-16T23:48:37.569Z,75.43
2019-01-16T23:51:45.381Z,75.32
2019-01-16T23:54:53.220Z,75.21
2019-01-16T23:58:01.047Z,75.06
